createdAt,value
2019-04-03T00:01:28.420Z,13.50
2019-04-03T00:06:19.761Z,13.40
2019-04-03T00:11:13.509Z,13.30
2019-04-03T00:16:05.034Z,13.20
2019-04-03T00:21:01.328Z,13.10
2019-04-03T00:25:53.479Z,13.00
2019-04-03T00:30:44.416Z,13.00
2019-04-03T00:35:37.993Z,12.90
2019-04-03T00:40:31.623Z,12.80
2019-04-03T00:45:27.574Z,12.80
2019-04-03T00:50:18.990Z,12.70
2019-04-03T00:55:10.492Z,12.60
2019-04-03T01:04:59.098Z,12.50
2019-04-03T01:09:49.310Z,12.40
2019-04-03T01:14:40.537Z,12.30
2019-04-03T01:19:32.042Z,12.20
2019-04-03T01:24:23.489Z,12.30
2019-04-03T01:29:17.042Z,12.30
2019-04-03T01:34:10.643Z,12.30
2019-04-03T01:39:04.325Z,12.30
2019-04-03T01:43:55.876Z,12.40
2019-04-03T01:48:47.077Z,12.30
2019-04-03T01:53:38.952Z,12.30
2019-04-03T01:58:32.101Z,12.30
2019-04-03T02:03:23.588Z,12.30
2019-04-03T02:08:17.172Z,12.30
2019-04-03T02:13:09.014Z,12.20
2019-04-03T02:18:00.073Z,12.20
2019-04-03T02:22:51.540Z,12.20
2019-04-03T02:27:42.807Z,12.10
2019-04-03T02:32:36.442Z,12.00
2019-04-03T02:37:28.124Z,11.90
2019-04-03T02:42:19.796Z,11.90
2019-04-03T02:47:10.834Z,11.80
2019-04-03T02:52:02.319Z,11.80
2019-04-03T02:56:53.761Z,11.70
2019-04-03T03:01:45.246Z,11.60
2019-04-03T03:06:48.717Z,11.40
2019-04-03T03:11:40.070Z,11.50
2019-04-03T03:16:31.727Z,11.40
2019-04-03T03:21:23.418Z,11.20
2019-04-03T03:26:14.396Z,11.00
2019-04-03T03:31:08.723Z,10.90
2019-04-03T03:35:58.270Z,10.70
2019-04-03T03:40:50.242Z,10.60
2019-04-03T03:45:39.737Z,10.50
2019-04-03T03:50:31.769Z,10.50
2019-04-03T03:55:26.543Z,10.50
2019-04-03T04:00:13.923Z,10.50
2019-04-03T04:05:12.575Z,10.40
2019-04-03T04:09:56.859Z,10.30
2019-04-03T04:14:48.209Z,10.30
2019-04-03T04:19:40.193Z,10.20
2019-04-03T04:24:30.949Z,10.20
2019-04-03T04:29:22.384Z,10.20
2019-04-03T04:34:13.766Z,10.20
2019-04-03T04:39:05.252Z,10.10
2019-04-03T04:43:56.725Z,10.10
2019-04-03T04:48:47.981Z,10.10
2019-04-03T04:53:39.523Z,10.00
2019-04-03T04:58:30.580Z,10.00
2019-04-03T05:03:23.137Z,10.00
2019-04-03T05:08:13.565Z,10.00
2019-04-03T05:13:04.757Z,10.00
2019-04-03T05:17:58.731Z,10.00
2019-04-03T05:22:47.566Z,9.90
2019-04-03T05:32:30.314Z,9.90
2019-04-03T05:37:21.767Z,10.00
2019-04-03T05:42:13.257Z,10.00
2019-04-03T05:47:08.706Z,10.00
2019-04-03T05:51:56.373Z,10.10
2019-04-03T05:56:47.200Z,10.10
2019-04-03T06:01:47.250Z,10.20
2019-04-03T06:06:30.096Z,10.40
2019-04-03T06:11:22.322Z,10.60
2019-04-03T06:16:12.879Z,10.70
2019-04-03T06:21:04.663Z,10.80
2019-04-03T06:25:56.021Z,10.90
2019-04-03T06:30:47.441Z,10.90
2019-04-03T06:35:38.406Z,11.00
2019-04-03T06:40:30.091Z,11.10
2019-04-03T06:45:21.399Z,11.10
2019-04-03T06:50:18.088Z,11.10
2019-04-03T06:55:05.112Z,11.10
2019-04-03T06:59:55.341Z,11.30
2019-04-03T07:04:46.945Z,11.50
2019-04-03T07:09:38.524Z,12.00
2019-04-03T07:14:29.488Z,12.30
2019-04-03T07:19:21.159Z,13.00
2019-04-03T07:24:12.667Z,13.40
2019-04-03T07:29:03.853Z,13.70
2019-04-03T07:34:03.918Z,13.90
2019-04-03T07:38:46.713Z,13.70
2019-04-03T07:43:38.111Z,13.70
2019-04-03T07:48:29.433Z,13.70
2019-04-03T07:53:21.291Z,13.50
2019-04-03T07:58:11.997Z,13.50
2019-04-03T08:03:03.398Z,13.50
2019-04-03T08:07:55.034Z,13.60
2019-04-03T08:12:46.535Z,14.10
2019-04-03T08:17:37.657Z,14.00
2019-04-03T08:22:29.047Z,13.80
2019-04-03T08:27:25.044Z,13.70
2019-04-03T08:32:12.056Z,13.40
2019-04-03T08:37:03.166Z,13.20
2019-04-03T08:41:57.625Z,13.10
2019-04-03T08:46:45.918Z,13.10
2019-04-03T08:51:38.100Z,13.50
2019-04-03T08:56:29.057Z,13.70
2019-04-03T09:01:20.212Z,13.70
2019-04-03T09:06:18.629Z,13.70
2019-04-03T09:11:09.952Z,13.50
2019-04-03T09:16:01.415Z,13.70
2019-04-03T09:20:52.794Z,14.70
2019-04-03T09:25:44.254Z,15.10
2019-04-03T09:30:35.360Z,15.50
2019-04-03T09:35:27.211Z,15.90
2019-04-03T09:40:19.199Z,15.60
2019-04-03T09:45:09.879Z,15.80
2019-04-03T09:50:01.335Z,15.80
2019-04-03T09:54:52.403Z,15.90
2019-04-03T09:59:44.263Z,15.90
2019-04-03T10:04:35.420Z,16.00
2019-04-03T10:09:26.863Z,16.20
2019-04-03T10:14:18.037Z,16.00
2019-04-03T10:19:10.921Z,15.90
2019-04-03T10:24:01.417Z,16.40
2019-04-03T10:28:52.032Z,17.10
2019-04-03T10:33:43.605Z,17.20
2019-04-03T10:38:35.384Z,17.50
2019-04-03T10:43:26.301Z,18.10
2019-04-03T10:48:18.050Z,17.90
2019-04-03T10:53:09.400Z,18.00
2019-04-03T10:58:08.218Z,18.10
2019-04-03T11:02:52.261Z,18.40
2019-04-03T11:07:43.203Z,18.30
2019-04-03T11:12:35.413Z,18.20
2019-04-03T11:17:26.690Z,17.90
2019-04-03T11:22:17.413Z,17.90
2019-04-03T11:27:08.804Z,18.20
2019-04-03T11:32:00.354Z,18.30
2019-04-03T11:36:52.461Z,18.60
2019-04-03T11:41:43.007Z,18.60
2019-04-03T11:46:34.802Z,18.90
2019-04-03T11:51:33.284Z,18.60
2019-04-03T11:56:17.198Z,18.70
2019-04-03T12:01:08.978Z,18.60
2019-04-03T12:06:00.015Z,18.90
2019-04-03T12:10:51.754Z,18.00
2019-04-03T12:15:42.886Z,16.50
2019-04-03T12:20:34.788Z,15.50
2019-04-03T12:25:26.216Z,15.00
2019-04-03T12:30:17.283Z,14.40
2019-04-03T12:35:12.129Z,14.10
2019-04-03T12:40:02.638Z,13.60
2019-04-03T12:44:56.129Z,13.70
2019-04-03T12:49:43.324Z,13.40
2019-04-03T12:54:34.337Z,13.30
2019-04-03T12:59:25.496Z,13.00
2019-04-03T13:04:16.975Z,13.10
2019-04-03T13:09:08.468Z,12.90
2019-04-03T13:14:00.751Z,12.90
2019-04-03T13:18:51.519Z,12.90
2019-04-03T13:23:47.000Z,13.10
2019-04-03T13:28:41.481Z,13.00
2019-04-03T13:33:25.414Z,12.80
2019-04-03T13:38:16.943Z,12.90
2019-04-03T13:43:08.181Z,13.20
2019-04-03T13:47:59.191Z,12.70
2019-04-03T13:52:52.363Z,13.10
2019-04-03T13:57:42.188Z,13.20
2019-04-03T14:02:33.593Z,13.00
2019-04-03T14:07:24.741Z,12.80
2019-04-03T14:12:18.186Z,12.50
2019-04-03T14:17:07.712Z,12.30
2019-04-03T14:22:01.675Z,12.20
2019-04-03T14:26:50.248Z,11.50
2019-04-03T14:31:41.658Z,11.20
2019-04-03T14:36:33.038Z,10.80
2019-04-03T14:41:24.695Z,10.70
2019-04-03T14:46:19.473Z,10.60
2019-04-03T14:51:12.784Z,10.40
2019-04-03T14:56:02.578Z,9.90
2019-04-03T15:00:51.192Z,9.70
2019-04-03T15:05:45.881Z,9.40
2019-04-03T15:10:35.302Z,8.90
2019-04-03T15:15:29.315Z,8.70
2019-04-03T15:20:20.529Z,8.80
2019-04-03T15:25:15.910Z,8.60
2019-04-03T15:30:03.371Z,8.50
2019-04-03T15:35:01.275Z,8.30
2019-04-03T15:39:59.910Z,8.10
2019-04-03T15:44:41.561Z,7.50
2019-04-03T15:49:33.367Z,7.20
2019-04-03T15:54:32.003Z,7.10
2019-04-03T15:59:17.882Z,7.00
2019-04-03T16:04:10.215Z,6.70
2019-04-03T16:09:01.117Z,6.40
2019-04-03T16:13:54.821Z,6.40
2019-04-03T16:18:46.618Z,6.40
2019-04-03T16:23:39.242Z,6.30
2019-04-03T16:28:29.113Z,6.40
2019-04-03T16:33:25.989Z,6.50
2019-04-03T16:38:14.027Z,6.50
2019-04-03T16:43:05.450Z,6.60
2019-04-03T16:47:58.676Z,6.50
2019-04-03T16:52:52.299Z,6.50
2019-04-03T16:57:46.018Z,6.50
2019-04-03T17:02:37.774Z,6.50
2019-04-03T17:07:29.288Z,6.50
2019-04-03T17:12:20.180Z,6.60
2019-04-03T17:17:15.946Z,6.60
2019-04-03T17:22:08.783Z,6.50
2019-04-03T17:31:59.322Z,6.50
2019-04-03T17:36:55.448Z,6.50
2019-04-03T17:41:42.225Z,6.40
2019-04-03T17:46:33.655Z,6.50
2019-04-03T17:51:24.973Z,6.50
2019-04-03T17:56:20.879Z,6.50
2019-04-03T18:01:12.468Z,6.60
2019-04-03T18:06:03.701Z,6.60
2019-04-03T18:10:55.122Z,6.60
2019-04-03T18:15:46.431Z,6.60
2019-04-03T18:20:40.030Z,6.60
2019-04-03T18:25:31.518Z,6.60
2019-04-03T18:30:22.837Z,6.60
2019-04-03T18:35:14.372Z,6.60
2019-04-03T18:40:05.655Z,6.60
2019-04-03T18:44:58.952Z,6.50
2019-04-03T18:49:48.397Z,6.50
2019-04-03T18:54:43.535Z,6.50
2019-04-03T18:59:31.192Z,6.50
2019-04-03T19:04:22.553Z,6.50
2019-04-03T19:09:14.060Z,6.50
2019-04-03T19:14:05.412Z,6.40
2019-04-03T19:19:08.985Z,6.50
2019-04-03T19:23:54.666Z,6.30
2019-04-03T19:28:41.847Z,6.40
2019-04-03T19:33:33.248Z,6.30
2019-04-03T19:38:24.667Z,6.30
2019-04-03T19:43:18.202Z,6.20
2019-04-03T19:48:09.659Z,6.20
2019-04-03T19:53:01.384Z,6.20
2019-04-03T19:57:52.417Z,6.20
2019-04-03T20:02:44.323Z,6.20
2019-04-03T20:07:37.349Z,6.20
2019-04-03T20:12:28.851Z,6.20
2019-04-03T20:17:20.200Z,6.20
2019-04-03T20:22:11.584Z,6.20
2019-04-03T20:27:02.935Z,6.20
2019-04-03T20:31:54.335Z,6.20
2019-04-03T20:36:54.656Z,6.20
2019-04-03T20:41:39.465Z,6.10
2019-04-03T20:46:33.081Z,6.10
2019-04-03T20:51:24.535Z,6.10
2019-04-03T20:56:15.888Z,6.10
2019-04-03T21:01:09.496Z,6.10
2019-04-03T21:06:00.998Z,6.20
2019-04-03T21:15:48.157Z,6.20
2019-04-03T21:20:39.635Z,6.30
2019-04-03T21:25:36.631Z,6.30
2019-04-03T21:30:25.444Z,6.30
2019-04-03T21:35:16.544Z,6.20
2019-04-03T21:40:08.000Z,6.20
2019-04-03T21:45:07.060Z,6.20
2019-04-03T21:49:55.235Z,6.20
2019-04-03T21:54:46.725Z,6.20
2019-04-03T21:59:38.149Z,6.20
2019-04-03T22:04:31.730Z,6.20
2019-04-03T22:09:23.161Z,6.30
2019-04-03T22:14:14.596Z,6.20
2019-04-03T22:19:05.957Z,6.10
2019-04-03T22:23:57.373Z,6.00
2019-04-03T22:28:48.788Z,6.00
2019-04-03T22:33:42.406Z,6.00
2019-04-03T22:38:38.296Z,5.90
2019-04-03T22:43:31.978Z,5.90
2019-04-03T22:48:27.388Z,5.80
2019-04-03T22:53:14.803Z,5.80
2019-04-03T22:58:08.460Z,5.70
2019-04-03T23:03:03.881Z,5.60
2019-04-03T23:07:55.824Z,5.60
2019-04-03T23:12:47.269Z,5.50
2019-04-03T23:17:38.706Z,5.50
2019-04-03T23:22:30.166Z,5.50
2019-04-03T23:27:21.479Z,5.50
2019-04-03T23:32:16.534Z,5.50
2019-04-03T23:37:04.229Z,5.40
2019-04-03T23:41:57.938Z,5.30
2019-04-03T23:46:51.566Z,5.30
2019-04-03T23:51:43.051Z,5.10
2019-04-03T23:56:34.401Z,5.10
